createdAt,value
2018-09-24T00:00:25.429Z,0.53
2018-09-24T00:02:53.038Z,0.63
2018-09-24T00:05:20.603Z,0.50
2018-09-24T00:07:48.149Z,0.60
2018-09-24T00:10:15.786Z,0.77
2018-09-24T00:12:43.379Z,0.50
2018-09-24T00:15:10.917Z,0.53
2018-09-24T00:17:38.669Z,0.53
2018-09-24T00:20:06.311Z,0.70
2018-09-24T00:22:33.990Z,0.70
2018-09-24T00:25:01.546Z,0.70
2018-09-24T00:27:29.074Z,0.80
2018-09-24T00:29:56.822Z,0.70
2018-09-24T00:32:24.448Z,0.50
2018-09-24T00:34:52.058Z,0.87
2018-09-24T00:37:19.822Z,0.73
2018-09-24T00:39:47.506Z,0.70
2018-09-24T00:42:15.015Z,0.80
2018-09-24T00:44:42.627Z,0.60
2018-09-24T00:47:10.209Z,0.50
2018-09-24T00:49:37.833Z,0.80
2018-09-24T00:52:05.657Z,0.57
2018-09-24T00:54:33.358Z,0.80
2018-09-24T00:57:00.877Z,0.57
2018-09-24T00:59:28.574Z,0.60
2018-09-24T01:01:56.254Z,0.70
2018-09-24T01:04:23.986Z,0.80
2018-09-24T01:06:51.478Z,0.67
2018-09-24T01:09:19.100Z,0.70
2018-09-24T01:11:46.703Z,0.67
2018-09-24T01:14:14.399Z,0.40
2018-09-24T01:16:41.934Z,0.50
2018-09-24T01:19:09.446Z,0.70
2018-09-24T01:21:37.110Z,0.70
2018-09-24T01:24:04.633Z,0.70
2018-09-24T01:26:32.302Z,0.60
2018-09-24T01:28:59.833Z,0.63
2018-09-24T01:31:27.346Z,0.50
2018-09-24T01:33:54.860Z,0.60
2018-09-24T01:36:22.438Z,0.50
2018-09-24T01:38:50.026Z,0.40
2018-09-24T01:41:17.646Z,0.60
2018-09-24T01:43:45.190Z,0.67
2018-09-24T01:46:12.849Z,0.50
2018-09-24T01:48:40.454Z,0.60
2018-09-24T01:51:07.981Z,0.60
2018-09-24T01:53:35.549Z,0.80
2018-09-24T01:56:03.073Z,0.80
2018-09-24T01:59:38.256Z,0.60
2018-09-24T02:02:05.770Z,0.80
2018-09-24T02:04:33.386Z,0.70
2018-09-24T02:07:01.017Z,0.60
2018-09-24T02:09:28.789Z,0.57
2018-09-24T02:12:02.221Z,0.73
2018-09-24T02:14:29.758Z,0.50
2018-09-24T02:16:57.381Z,0.70
2018-09-24T02:19:25.045Z,0.60
2018-09-24T02:21:52.671Z,0.77
2018-09-24T02:24:20.271Z,0.63
2018-09-24T02:26:47.943Z,0.70
2018-09-24T02:29:15.626Z,0.80
2018-09-24T02:31:43.271Z,0.90
2018-09-24T02:34:11.653Z,0.70
2018-09-24T02:36:39.571Z,0.70
2018-09-24T02:39:08.083Z,0.77
2018-09-24T02:41:35.766Z,0.80
2018-09-24T02:44:03.427Z,0.77
2018-09-24T02:46:31.075Z,0.80
2018-09-24T02:49:02.088Z,0.90
2018-09-24T02:51:30.275Z,0.70
2018-09-24T02:53:58.022Z,0.67
2018-09-24T02:56:25.571Z,0.90
2018-09-24T02:58:53.243Z,0.90
2018-09-24T03:01:20.985Z,1.07
2018-09-24T03:03:48.602Z,1.10
2018-09-24T03:06:16.113Z,1.10
2018-09-24T03:08:43.767Z,0.80
2018-09-24T03:11:11.382Z,1.00
2018-09-24T03:13:39.029Z,0.80
2018-09-24T03:16:06.684Z,0.70
2018-09-24T03:18:34.221Z,1.20
2018-09-24T03:21:01.831Z,0.80
2018-09-24T03:23:29.447Z,0.90
2018-09-24T03:25:57.084Z,1.27
2018-09-24T03:28:24.772Z,0.90
2018-09-24T03:30:52.371Z,1.30
2018-09-24T03:33:19.946Z,1.10
2018-09-24T03:35:47.570Z,1.00
2018-09-24T03:38:15.091Z,0.90
2018-09-24T03:40:42.613Z,1.20
2018-09-24T03:43:10.259Z,1.20
2018-09-24T03:45:37.801Z,1.27
2018-09-24T03:48:05.441Z,1.30
2018-09-24T03:50:32.966Z,1.33
2018-09-24T03:53:00.499Z,1.27
2018-09-24T03:55:28.143Z,1.30
2018-09-24T03:57:55.766Z,1.40
2018-09-24T04:00:23.314Z,1.40
2018-09-24T04:02:50.866Z,1.60
2018-09-24T04:05:24.036Z,1.50
2018-09-24T04:07:57.350Z,1.50
2018-09-24T04:10:30.624Z,1.30
2018-09-24T04:13:03.772Z,1.40
2018-09-24T04:15:36.854Z,1.80
2018-09-24T04:18:09.899Z,1.63
2018-09-24T04:20:43.071Z,1.27
2018-09-24T04:23:16.222Z,1.33
2018-09-24T04:25:49.554Z,1.20
2018-09-24T04:28:22.866Z,1.40
2018-09-24T04:30:56.085Z,1.37
2018-09-24T04:33:29.269Z,1.40
2018-09-24T04:36:02.482Z,1.53
2018-09-24T04:38:35.622Z,1.20
2018-09-24T04:41:08.831Z,1.57
2018-09-24T04:43:42.027Z,1.63
2018-09-24T04:46:15.127Z,1.43
2018-09-24T04:48:48.238Z,1.30
2018-09-24T04:51:21.430Z,1.60
2018-09-24T04:53:54.542Z,1.50
2018-09-24T04:56:27.742Z,1.20
2018-09-24T04:59:00.925Z,1.50
2018-09-24T05:01:34.198Z,1.20
2018-09-24T05:04:07.321Z,1.70
2018-09-24T05:06:40.521Z,1.30
2018-09-24T05:09:13.734Z,1.57
2018-09-24T05:11:47.091Z,1.60
2018-09-24T05:14:20.225Z,1.70
2018-09-24T05:24:03.422Z,1.47
2018-09-24T05:26:36.444Z,1.73
2018-09-24T05:29:09.670Z,1.90
2018-09-24T05:31:42.837Z,2.00
2018-09-24T05:34:16.102Z,2.00
2018-09-24T05:36:49.346Z,1.90
2018-09-24T05:39:22.537Z,1.57
2018-09-24T05:41:55.623Z,1.77
2018-09-24T05:44:28.741Z,1.60
2018-09-24T05:47:02.083Z,1.97
2018-09-24T05:49:35.266Z,1.60
2018-09-24T05:52:08.461Z,2.00
2018-09-24T05:54:41.502Z,1.70
2018-09-24T05:57:14.795Z,1.73
2018-09-24T05:59:48.354Z,1.70
2018-09-24T06:02:21.638Z,1.50
2018-09-24T06:04:54.694Z,1.60
2018-09-24T06:07:27.926Z,1.33
2018-09-24T06:10:01.165Z,1.60
2018-09-24T06:12:34.519Z,1.57
2018-09-24T06:15:07.654Z,1.50
2018-09-24T06:17:41.074Z,1.33
2018-09-24T06:20:14.332Z,1.43
2018-09-24T06:22:47.387Z,1.57
2018-09-24T06:25:20.580Z,1.50
2018-09-24T06:27:53.922Z,1.77
2018-09-24T06:30:27.062Z,1.60
2018-09-24T06:33:00.246Z,1.90
2018-09-24T06:35:33.364Z,2.40
2018-09-24T06:38:06.348Z,1.87
2018-09-24T06:40:39.546Z,3.00
2018-09-24T06:43:12.653Z,2.03
2018-09-24T06:45:45.781Z,2.60
2018-09-24T06:48:18.933Z,2.37
2018-09-24T06:50:52.318Z,2.33
2018-09-24T06:53:25.429Z,2.17
2018-09-24T06:55:58.602Z,2.67
2018-09-24T06:58:31.706Z,2.60
2018-09-24T07:01:04.866Z,2.50
2018-09-24T07:03:38.007Z,2.40
2018-09-24T07:06:11.194Z,2.57
2018-09-24T07:08:44.382Z,2.07
2018-09-24T07:11:17.537Z,2.47
2018-09-24T07:13:50.733Z,2.20
2018-09-24T07:16:23.927Z,2.07
2018-09-24T07:23:54.170Z,1.37
2018-09-24T07:26:27.197Z,1.40
2018-09-24T07:29:00.375Z,1.50
2018-09-24T07:31:33.687Z,1.17
2018-09-24T07:34:06.945Z,1.30
2018-09-24T07:36:40.018Z,1.20
2018-09-24T07:39:13.722Z,1.45
2018-09-24T07:41:47.662Z,1.20
2018-09-24T07:44:20.813Z,1.20
2018-09-24T07:46:54.168Z,1.12
2018-09-24T07:49:27.557Z,1.12
2018-09-24T07:52:00.770Z,1.00
2018-09-24T07:54:33.846Z,1.00
2018-09-24T07:57:07.000Z,1.15
2018-09-24T07:59:40.366Z,1.37
2018-09-24T08:02:13.550Z,1.37
2018-09-24T08:04:46.718Z,0.90
2018-09-24T08:07:19.911Z,1.10
2018-09-24T08:09:53.031Z,0.90
2018-09-24T08:12:26.185Z,0.70
2018-09-24T08:14:59.337Z,1.10
2018-09-24T08:17:32.572Z,0.70
2018-09-24T08:20:05.669Z,1.10
2018-09-24T08:22:38.773Z,1.27
2018-09-24T08:25:11.962Z,1.10
2018-09-24T08:27:45.227Z,1.10
2018-09-24T08:30:18.419Z,0.80
2018-09-24T08:32:51.671Z,0.87
2018-09-24T08:35:24.978Z,1.17
2018-09-24T08:37:58.167Z,0.80
2018-09-24T08:40:31.471Z,0.80
2018-09-24T08:43:04.608Z,1.20
2018-09-24T08:45:37.652Z,0.80
2018-09-24T08:48:10.878Z,1.07
2018-09-24T08:50:43.858Z,0.90
2018-09-24T08:53:17.017Z,1.13
2018-09-24T08:55:50.150Z,0.93
2018-09-24T08:58:23.353Z,0.60
2018-09-24T09:00:56.605Z,0.93
2018-09-24T09:03:29.881Z,0.93
2018-09-24T09:06:02.890Z,1.17
2018-09-24T09:08:36.109Z,1.00
2018-09-24T09:11:09.258Z,1.00
2018-09-24T09:13:42.373Z,0.70
2018-09-24T09:16:15.681Z,0.80
2018-09-24T09:18:48.738Z,0.80
2018-09-24T09:21:21.902Z,0.97
2018-09-24T09:23:55.255Z,1.00
2018-09-24T09:26:28.523Z,1.00
2018-09-24T09:29:01.625Z,1.00
2018-09-24T09:31:34.814Z,1.20
2018-09-24T09:34:08.027Z,1.00
2018-09-24T09:36:41.118Z,0.80
2018-09-24T09:39:14.321Z,1.20
2018-09-24T09:41:47.502Z,0.70
2018-09-24T09:44:20.574Z,0.60
2018-09-24T09:46:53.861Z,0.93
2018-09-24T09:49:26.918Z,0.80
2018-09-24T09:52:00.013Z,0.80
2018-09-24T09:54:33.270Z,0.90
2018-09-24T09:57:06.419Z,0.93
2018-09-24T09:59:39.507Z,1.27
2018-09-24T10:02:12.729Z,0.80
2018-09-24T10:04:46.025Z,0.63
2018-09-24T10:07:19.118Z,0.50
2018-09-24T10:09:52.235Z,0.80
2018-09-24T10:12:25.434Z,0.73
2018-09-24T10:14:58.498Z,0.60
2018-09-24T10:17:31.687Z,0.80
2018-09-24T10:20:04.862Z,0.53
2018-09-24T10:22:38.014Z,0.83
2018-09-24T10:25:11.065Z,0.90
2018-09-24T10:27:44.201Z,0.90
2018-09-24T10:30:17.342Z,0.80
2018-09-24T10:32:50.534Z,0.77
2018-09-24T10:35:23.654Z,0.73
2018-09-24T10:37:56.722Z,0.67
2018-09-24T10:40:29.844Z,0.60
2018-09-24T10:43:03.090Z,0.90
2018-09-24T10:45:36.373Z,0.90
2018-09-24T10:48:09.518Z,0.60
2018-09-24T10:50:42.840Z,0.73
2018-09-24T10:53:16.090Z,0.90
2018-09-24T10:55:49.283Z,0.73
2018-09-24T10:58:22.382Z,0.70
2018-09-24T11:00:55.519Z,0.60
2018-09-24T11:03:28.760Z,0.87
2018-09-24T11:06:01.986Z,0.60
2018-09-24T11:08:35.018Z,0.77
2018-09-24T11:11:08.222Z,0.70
2018-09-24T11:13:41.325Z,0.73
2018-09-24T11:16:14.696Z,0.80
2018-09-24T11:18:47.806Z,0.63
2018-09-24T11:21:21.024Z,0.90
2018-09-24T11:23:54.131Z,0.70
2018-09-24T11:29:00.482Z,0.47
2018-09-24T11:31:33.697Z,0.93
2018-09-24T11:34:06.791Z,0.80
2018-09-24T11:36:39.928Z,0.80
2018-09-24T11:39:13.285Z,0.60
2018-09-24T11:41:46.498Z,0.80
2018-09-24T11:44:19.779Z,0.60
2018-09-24T11:46:52.975Z,0.50
2018-09-24T11:49:26.009Z,0.83
2018-09-24T11:51:59.207Z,5.80
2018-09-24T11:54:32.477Z,5.53
2018-09-24T11:57:05.583Z,2.37
2018-09-24T11:59:38.684Z,1.87
2018-09-24T12:02:11.875Z,1.40
2018-09-24T12:04:44.896Z,0.90
2018-09-24T12:07:18.039Z,1.07
2018-09-24T12:09:51.230Z,0.60
2018-09-24T12:12:24.283Z,0.80
2018-09-24T12:14:57.586Z,0.77
2018-09-24T12:17:30.814Z,0.57
2018-09-24T12:20:03.933Z,0.60
2018-09-24T12:22:37.075Z,0.60
2018-09-24T12:25:10.211Z,0.70
2018-09-24T12:27:43.495Z,0.87
2018-09-24T12:30:16.772Z,0.73
2018-09-24T12:32:49.973Z,0.57
2018-09-24T12:35:23.058Z,6.20
2018-09-24T12:37:56.202Z,2.43
2018-09-24T12:40:29.287Z,1.40
2018-09-24T12:43:02.403Z,0.70
2018-09-24T12:45:35.686Z,6.63
2018-09-24T12:48:08.755Z,4.70
2018-09-24T12:50:41.873Z,3.37
2018-09-24T12:53:14.993Z,2.23
2018-09-24T12:55:54.791Z,1.50
2018-09-24T12:58:27.928Z,0.90
2018-09-24T13:01:00.930Z,0.60
2018-09-24T13:03:34.155Z,0.60
2018-09-24T13:06:07.440Z,0.73
2018-09-24T13:08:40.582Z,0.50
2018-09-24T13:11:13.699Z,0.70
2018-09-24T13:13:46.814Z,0.47
2018-09-24T13:16:20.000Z,0.50
2018-09-24T13:18:53.037Z,0.93
2018-09-24T13:21:26.291Z,0.63
2018-09-24T13:23:59.475Z,0.70
2018-09-24T13:26:32.621Z,0.70
2018-09-24T13:29:05.718Z,0.63
2018-09-24T13:31:38.897Z,0.70
2018-09-24T13:34:12.009Z,0.70
2018-09-24T13:36:45.245Z,0.87
2018-09-24T13:39:18.497Z,0.80
2018-09-24T13:41:51.481Z,0.50
2018-09-24T13:44:24.605Z,0.57
2018-09-24T13:46:57.827Z,0.40
2018-09-24T13:49:31.065Z,0.70
2018-09-24T13:52:04.185Z,0.60
2018-09-24T13:54:37.440Z,1.07
2018-09-24T13:57:10.974Z,0.80
2018-09-24T13:59:44.046Z,0.80
2018-09-24T14:02:17.372Z,0.60
2018-09-24T14:04:50.562Z,0.77
2018-09-24T14:07:23.610Z,0.83
2018-09-24T14:09:56.775Z,0.60
2018-09-24T14:12:29.994Z,0.60
2018-09-24T14:15:03.162Z,0.70
2018-09-24T14:17:36.280Z,0.60
2018-09-24T14:20:09.466Z,0.70
2018-09-24T14:22:42.650Z,0.67
2018-09-24T14:25:15.714Z,0.60
2018-09-24T14:27:48.856Z,1.17
2018-09-24T14:30:21.957Z,1.00
2018-09-24T14:32:55.025Z,0.80
2018-09-24T14:35:28.377Z,1.00
2018-09-24T14:38:01.649Z,0.53
2018-09-24T14:40:34.796Z,0.70
2018-09-24T14:43:07.881Z,0.73
2018-09-24T14:45:41.021Z,0.60
2018-09-24T14:48:14.315Z,0.63
2018-09-24T14:50:47.341Z,0.63
2018-09-24T14:53:20.584Z,0.70
2018-09-24T14:55:53.676Z,0.60
2018-09-24T14:58:26.982Z,0.60
2018-09-24T15:00:59.986Z,0.60
2018-09-24T15:03:33.127Z,0.63
2018-09-24T15:06:06.418Z,0.73
2018-09-24T15:08:39.497Z,0.50
2018-09-24T15:11:12.638Z,0.57
2018-09-24T15:13:45.707Z,0.50
2018-09-24T15:16:18.898Z,0.80
2018-09-24T15:18:51.898Z,0.57
2018-09-24T15:21:25.049Z,0.50
2018-09-24T15:23:58.214Z,0.73
2018-09-24T15:26:31.329Z,1.10
2018-09-24T15:29:04.639Z,0.60
2018-09-24T15:31:37.681Z,0.40
2018-09-24T15:34:10.884Z,0.80
2018-09-24T15:36:44.070Z,0.77
2018-09-24T15:39:17.162Z,0.50
2018-09-24T15:41:50.445Z,0.40
2018-09-24T15:44:23.715Z,0.60
2018-09-24T15:46:56.725Z,0.53
2018-09-24T15:49:29.875Z,0.40
2018-09-24T15:52:02.925Z,0.53
2018-09-24T15:54:36.205Z,0.40
2018-09-24T15:57:09.443Z,0.50
2018-09-24T15:59:42.596Z,0.40
2018-09-24T16:02:15.907Z,0.33
2018-09-24T16:04:49.132Z,0.30
2018-09-24T16:07:22.333Z,0.60
2018-09-24T16:09:55.486Z,0.50
2018-09-24T16:12:28.622Z,0.57
2018-09-24T16:15:01.718Z,0.60
2018-09-24T16:17:34.807Z,0.50
2018-09-24T16:20:07.962Z,0.30
2018-09-24T16:22:40.973Z,0.50
2018-09-24T16:25:14.142Z,0.30
2018-09-24T16:27:47.254Z,0.70
2018-09-24T16:30:20.465Z,0.60
2018-09-24T16:32:53.645Z,0.57
2018-09-24T16:35:26.797Z,0.60
2018-09-24T16:37:59.842Z,0.50
2018-09-24T16:40:33.017Z,0.53
2018-09-24T16:43:06.167Z,0.33
2018-09-24T16:45:39.421Z,0.43
2018-09-24T16:48:12.547Z,0.40
2018-09-24T16:50:45.706Z,0.53
2018-09-24T16:53:18.850Z,0.50
2018-09-24T16:55:52.114Z,0.60
2018-09-24T16:58:25.208Z,0.80
2018-09-24T17:00:58.302Z,0.90
2018-09-24T17:03:31.541Z,0.70
2018-09-24T17:06:04.657Z,0.57
2018-09-24T17:08:37.833Z,0.70
2018-09-24T17:11:10.997Z,0.47
2018-09-24T17:13:44.241Z,0.80
2018-09-24T17:16:17.286Z,0.70
2018-09-24T17:18:50.421Z,0.43
2018-09-24T17:21:23.653Z,0.50
2018-09-24T17:23:56.781Z,1.00
2018-09-24T17:26:29.990Z,1.00
2018-09-24T17:29:03.338Z,0.80
2018-09-24T17:31:36.686Z,1.00
2018-09-24T17:34:09.730Z,0.70
2018-09-24T17:36:42.861Z,0.60
2018-09-24T17:39:16.123Z,0.50
2018-09-24T17:41:49.374Z,0.70
2018-09-24T17:44:22.558Z,0.70
2018-09-24T17:46:56.069Z,0.87
2018-09-24T17:49:29.503Z,0.93
2018-09-24T17:52:02.886Z,0.53
2018-09-24T17:54:36.064Z,0.73
2018-09-24T17:57:09.192Z,0.77
2018-09-24T17:59:42.378Z,0.80
2018-09-24T18:02:15.688Z,0.70
2018-09-24T18:04:49.041Z,0.67
2018-09-24T18:07:22.634Z,0.90
2018-09-24T18:09:56.414Z,0.77
2018-09-24T18:12:30.345Z,0.50
2018-09-24T18:15:03.981Z,0.70
2018-09-24T18:17:37.638Z,0.73
2018-09-24T18:20:11.652Z,0.57
2018-09-24T18:22:45.525Z,0.60
2018-09-24T18:25:18.994Z,0.57
2018-09-24T18:27:52.555Z,0.87
2018-09-24T18:30:26.679Z,0.63
2018-09-24T18:33:00.220Z,0.80
2018-09-24T18:35:33.801Z,0.70
2018-09-24T18:38:07.108Z,0.53
2018-09-24T18:40:40.503Z,0.73
2018-09-24T18:43:14.428Z,0.70
2018-09-24T18:45:48.384Z,0.57
2018-09-24T18:48:21.989Z,0.53
2018-09-24T18:50:55.519Z,0.50
2018-09-24T18:53:29.336Z,0.57
2018-09-24T18:56:02.747Z,0.53
2018-09-24T18:58:36.280Z,0.60
2018-09-24T19:01:11.077Z,0.57
2018-09-24T19:03:44.726Z,0.60
2018-09-24T19:06:19.495Z,0.50
2018-09-24T19:08:52.654Z,0.60
2018-09-24T19:11:27.966Z,0.67
2018-09-24T19:13:59.014Z,0.47
2018-09-24T19:16:32.271Z,0.87
2018-09-24T19:19:05.337Z,0.90
2018-09-24T19:21:38.462Z,0.40
2018-09-24T19:24:11.710Z,0.50
2018-09-24T19:26:44.975Z,0.50
2018-09-24T19:29:18.077Z,4.97
2018-09-24T19:31:51.221Z,2.60
2018-09-24T19:34:24.406Z,2.10
2018-09-24T19:36:57.697Z,1.43
2018-09-24T19:39:30.863Z,1.17
2018-09-24T19:42:04.043Z,0.90
2018-09-24T19:44:37.314Z,0.50
2018-09-24T19:47:10.763Z,0.50
2018-09-24T19:49:43.874Z,0.70
2018-09-24T19:52:17.034Z,0.50
2018-09-24T19:54:50.037Z,0.90
2018-09-24T19:57:23.148Z,0.70
2018-09-24T19:59:56.175Z,0.43
2018-09-24T20:02:29.408Z,0.70
2018-09-24T20:05:02.578Z,0.60
2018-09-24T20:07:35.806Z,0.70
2018-09-24T20:10:08.963Z,0.77
2018-09-24T20:12:42.336Z,0.60
2018-09-24T20:15:15.502Z,0.70
2018-09-24T20:17:48.650Z,0.50
2018-09-24T20:20:22.002Z,1.50
2018-09-24T20:22:55.256Z,1.53
2018-09-24T20:25:28.401Z,1.23
2018-09-24T20:28:01.441Z,0.67
2018-09-24T20:30:34.613Z,0.67
2018-09-24T20:33:07.787Z,0.70
2018-09-24T20:35:40.890Z,0.80
2018-09-24T20:38:14.280Z,1.07
2018-09-24T20:40:47.367Z,0.60
2018-09-24T20:43:20.493Z,0.90
2018-09-24T20:45:53.634Z,0.73
2018-09-24T20:48:26.726Z,0.63
2018-09-24T20:50:59.869Z,0.70
2018-09-24T20:53:33.022Z,0.73
2018-09-24T20:56:06.176Z,0.63
2018-09-24T20:58:39.382Z,0.60
2018-09-24T21:01:12.842Z,0.70
2018-09-24T21:03:46.042Z,0.90
2018-09-24T21:06:19.302Z,0.60
2018-09-24T21:08:53.037Z,0.67
2018-09-24T21:11:26.205Z,0.70
2018-09-24T21:13:59.329Z,0.40
2018-09-24T21:16:32.445Z,0.70
2018-09-24T21:19:05.721Z,0.80
2018-09-24T21:21:38.782Z,0.97
2018-09-24T21:24:12.509Z,1.10
2018-09-24T21:26:45.841Z,0.70
2018-09-24T21:29:19.036Z,1.03
2018-09-24T21:31:52.174Z,1.00
2018-09-24T21:34:25.401Z,0.90
2018-09-24T21:36:58.657Z,0.90
2018-09-24T21:39:31.826Z,0.57
2018-09-24T21:42:05.005Z,1.00
2018-09-24T21:44:38.304Z,0.80
2018-09-24T21:47:11.610Z,0.60
2018-09-24T21:49:44.712Z,1.05
2018-09-24T21:52:18.039Z,0.63
2018-09-24T21:54:51.182Z,0.70
2018-09-24T21:57:24.281Z,0.50
2018-09-24T21:59:57.414Z,0.60
2018-09-24T22:02:30.488Z,0.60
2018-09-24T22:05:03.669Z,0.60
2018-09-24T22:07:36.811Z,0.67
2018-09-24T22:10:10.061Z,0.67
2018-09-24T22:12:43.293Z,0.53
2018-09-24T22:15:16.554Z,0.63
2018-09-24T22:17:49.947Z,0.50
2018-09-24T22:20:23.197Z,0.50
2018-09-24T22:22:56.363Z,0.60
2018-09-24T22:25:29.754Z,0.73
2018-09-24T22:28:02.893Z,0.60
2018-09-24T22:30:36.042Z,0.70
2018-09-24T22:33:09.134Z,0.60
2018-09-24T22:35:42.215Z,0.70
2018-09-24T22:38:15.470Z,0.70
2018-09-24T22:40:48.755Z,0.47
2018-09-24T22:43:21.918Z,0.53
2018-09-24T22:45:55.174Z,0.67
2018-09-24T22:48:28.293Z,0.50
2018-09-24T22:51:01.447Z,0.50
2018-09-24T22:53:34.542Z,0.50
2018-09-24T22:56:07.655Z,0.57
2018-09-24T22:58:40.834Z,0.53
2018-09-24T23:01:14.115Z,0.60
2018-09-24T23:03:47.317Z,0.97
2018-09-24T23:06:20.529Z,0.33
2018-09-24T23:08:53.878Z,0.50
2018-09-24T23:11:27.049Z,0.50
2018-09-24T23:14:00.121Z,0.57
2018-09-24T23:16:33.240Z,0.70
2018-09-24T23:19:06.348Z,0.80
2018-09-24T23:24:18.496Z,0.50
2018-09-24T23:26:51.702Z,0.93
2018-09-24T23:29:25.606Z,0.37
2018-09-24T23:31:58.697Z,0.87
2018-09-24T23:34:31.836Z,0.37
2018-09-24T23:37:04.962Z,1.20
2018-09-24T23:39:38.103Z,0.73
2018-09-24T23:42:11.801Z,0.50
2018-09-24T23:44:45.055Z,0.60
2018-09-24T23:47:18.759Z,0.60
2018-09-24T23:49:51.923Z,0.60
2018-09-24T23:52:25.190Z,0.30
2018-09-24T23:54:58.321Z,0.60
2018-09-24T23:57:31.727Z,0.37
